Weather at Bella Yella Airport

Public forecast

Using degrees Celsius for public forecast. Weather courtesy of forecast.io.

Closest aviation weather report (METAR) to Bella Yella Airport

Closest report is Roberts International Airport, 71.6 nm (132.6 km) SSW. Retrieved 2021/09/25 17:00 UTC (6 minutes ago):

GLRB 251700Z 23010KT 9999 TS BKN016 FEW025CB 28/25 Q1010 TEMPO TS RMK CB/N-NE

Closest aviation forecast (TAF) to Bella Yella Airport

Closest forecast is Roberts International Airport, 71.6 nm (132.6 km) SSW. Retrieved 2021/09/25 12:57 UTC (4 hours ago):

TAF TAF GLRB 251100Z 2512/2612 24010KT 9999 BKN017 TEMPO 2514/2518 17004KT 7000 -RA BKN013 FEW024CB TEMPO 2519/2523 00000KT 9000 BKN012 FEW023CB